Time;durP1;ratioP1;P1;durP2;ratioP2;P2;SDS_P1;SDS_P2;PMS_P1;PMS_P2;Temp;Humidity;BMP_temperature;BMP_pressure;BME280_temperature;BME280_humidity;BME280_pressure;Samples;Min_cycle;Max_cycle;Signal;HPM_P1;HPM_P2
2021/11/01 00:01:15;;;;;;;31.88;5.13;;;;;;;;;;5106216;28;20079;-66
2021/11/01 00:03:41;;;;;;;28.42;5.22;;;;;;;;;;5125571;28;20055;-66
2021/11/01 00:06:07;;;;;;;25.83;3.92;;;;;;;;;;5124353;28;20103;-66
2021/11/01 00:08:36;;;;;;;25.45;4.60;;;;;;;;;;5125026;28;20031;-67
2021/11/01 00:11:02;;;;;;;25.00;4.35;;;;;;;;;;5105140;28;20149;-67
2021/11/01 00:13:28;;;;;;;36.00;4.80;;;;;;;;;;5122822;28;20051;-67
2021/11/01 00:15:54;;;;;;;31.27;4.82;;;;;;;;;;5125334;28;20047;-67
2021/11/01 00:18:21;;;;;;;30.17;5.28;;;;;;;;;;5122611;28;20071;-67
2021/11/01 00:20:47;;;;;;;27.60;3.65;;;;;;;;;;5100595;28;20047;-67
2021/11/01 00:23:13;;;;;;;37.08;5.28;;;;;;;;;;5113893;28;20048;-67
2021/11/01 00:25:39;;;;;;;41.92;3.75;;;;;;;;;;5126495;28;20050;-67
2021/11/01 00:28:05;;;;;;;29.00;3.67;;;;;;;;;;5106466;28;20035;-67
2021/11/01 00:30:31;;;;;;;25.52;5.13;;;;;;;;;;5113412;28;20036;-67
2021/11/01 00:32:57;;;;;;;37.45;4.40;;;;;;;;;;5115831;28;20036;-67
2021/11/01 00:35:23;;;;;;;33.60;4.90;;;;;;;;;;5118987;28;20059;-67
2021/11/01 00:37:49;;;;;;;25.50;4.80;;;;;;;;;;5125036;28;20052;-67
2021/11/01 00:40:15;;;;;;;33.05;5.15;;;;;;;;;;5097572;28;20057;-67
2021/11/01 00:42:42;;;;;;;36.83;5.88;;;;;;;;;;5100528;28;20067;-67
2021/11/01 00:45:08;;;;;;;18.90;3.28;;;;;;;;;;5093898;28;20595;-67
2021/11/01 00:47:34;;;;;;;32.47;4.30;;;;;;;;;;5080225;28;20509;-67
2021/11/01 00:50:00;;;;;;;28.27;4.22;;;;;;;;;;5102625;28;20043;-67
2021/11/01 00:52:27;;;;;;;39.08;6.40;;;;;;;;;;5092725;28;20047;-67
2021/11/01 00:54:58;;;;;;;31.20;4.68;;;;;;;;;;5120857;28;20047;-66
2021/11/01 00:57:26;;;;;;;25.35;3.95;;;;;;;;;;5117870;28;20053;-66
2021/11/01 00:59:52;;;;;;;29.27;4.97;;;;;;;;;;5099922;28;20040;-66
2021/11/01 01:02:18;;;;;;;22.70;4.75;;;;;;;;;;5120293;28;20047;-66
2021/11/01 01:04:44;;;;;;;30.35;6.00;;;;;;;;;;5116790;28;20043;-66
2021/11/01 01:07:10;;;;;;;24.98;4.90;;;;;;;;;;5113254;28;20050;-66
2021/11/01 01:09:36;;;;;;;27.98;4.35;;;;;;;;;;5113587;28;20077;-66
2021/11/01 01:12:02;;;;;;;41.47;6.20;;;;;;;;;;5113389;28;20108;-66
2021/11/01 01:14:31;;;;;;;26.85;4.80;;;;;;;;;;5119906;28;20458;-66
2021/11/01 01:17:00;;;;;;;31.67;3.78;;;;;;;;;;5113297;28;20127;-66
2021/11/01 01:19:33;;;;;;;24.23;3.80;;;;;;;;;;5116624;28;20404;-66
2021/11/01 01:22:42;;;;;;;26.05;3.88;;;;;;;;;;5121671;28;20047;-66
2021/11/01 01:24:49;;;;;;;24.48;4.22;;;;;;;;;;5091064;28;20516;-66
2021/11/01 01:27:15;;;;;;;30.85;4.78;;;;;;;;;;5104791;28;20055;-66
2021/11/01 01:29:41;;;;;;;32.50;4.50;;;;;;;;;;5095488;28;20135;-66
2021/11/01 01:32:07;;;;;;;20.38;3.35;;;;;;;;;;5113671;28;20043;-66
2021/11/01 01:34:33;;;;;;;27.63;4.43;;;;;;;;;;5116244;28;20048;-66
2021/11/01 01:36:59;;;;;;;31.10;4.97;;;;;;;;;;5113518;28;20085;-66
2021/11/01 01:39:26;;;;;;;22.48;3.78;;;;;;;;;;5108810;28;20063;-67
2021/11/01 01:41:52;;;;;;;25.35;4.57;;;;;;;;;;5111993;28;20081;-67
2021/11/01 01:44:18;;;;;;;30.35;5.63;;;;;;;;;;5116472;28;20043;-66
2021/11/01 01:46:44;;;;;;;22.88;4.18;;;;;;;;;;5109379;28;20043;-66
2021/11/01 01:49:11;;;;;;;33.08;4.15;;;;;;;;;;5116078;28;20165;-66
2021/11/01 01:51:37;;;;;;;24.88;3.83;;;;;;;;;;5111245;28;20483;-66
2021/11/01 01:54:04;;;;;;;19.58;3.47;;;;;;;;;;5111633;28;20054;-66
2021/11/01 01:56:30;;;;;;;21.40;4.70;;;;;;;;;;5102061;28;20066;-66
2021/11/01 01:59:00;;;;;;;35.30;3.92;;;;;;;;;;5118530;28;20040;-66
2021/11/01 02:01:27;;;;;;;19.17;3.88;;;;;;;;;;5070328;28;20092;-66
2021/11/01 02:03:53;;;;;;;33.85;4.10;;;;;;;;;;5097734;28;20059;-66
2021/11/01 02:06:30;;;;;;;23.15;3.75;;;;;;;;;;5121428;28;20187;-66
2021/11/01 02:08:56;;;;;;;28.45;4.00;;;;;;;;;;5117738;28;20075;-66
2021/11/01 02:11:27;;;;;;;35.38;4.55;;;;;;;;;;5110791;28;20043;-67
2021/11/01 02:13:54;;;;;;;25.50;5.25;;;;;;;;;;5114789;28;20507;-66
2021/11/01 02:16:21;;;;;;;21.50;3.65;;;;;;;;;;5120493;28;20115;-67
2021/11/01 02:18:49;;;;;;;19.02;4.15;;;;;;;;;;5110085;28;20047;-67
2021/11/01 02:21:24;;;;;;;17.60;3.20;;;;;;;;;;5121087;28;20103;-67
2021/11/01 02:24:02;;;;;;;21.95;3.28;;;;;;;;;;5115963;28;20043;-67
2021/11/01 02:26:28;;;;;;;;;;;;;;;;;;5119719;28;20040;-67
2021/11/01 02:28:54;;;;;;;14.93;3.30;;;;;;;;;;5118416;28;19931;-67
2021/11/01 02:31:21;;;;;;;26.00;4.30;;;;;;;;;;5108575;28;20043;-67
2021/11/01 02:33:50;;;;;;;24.67;4.40;;;;;;;;;;5114235;28;20050;-66
2021/11/01 02:36:17;;;;;;;26.05;4.90;;;;;;;;;;5115391;28;20056;-66
2021/11/01 02:38:44;;;;;;;22.15;4.00;;;;;;;;;;5118514;28;20036;-67
2021/11/01 02:41:18;;;;;;;28.90;4.43;;;;;;;;;;5091301;28;20062;-66
2021/11/01 02:43:58;;;;;;;15.88;3.17;;;;;;;;;;5112301;28;20039;-66
2021/11/01 02:46:26;;;;;;;28.42;4.32;;;;;;;;;;5120904;28;20427;-66
2021/11/01 02:48:53;;;;;;;23.90;3.90;;;;;;;;;;5095674;28;20051;-66
2021/11/01 02:51:20;;;;;;;22.45;3.78;;;;;;;;;;5106589;28;20054;-66
2021/11/01 02:53:46;;;;;;;22.33;4.53;;;;;;;;;;5113165;28;20046;-67
2021/11/01 02:56:13;;;;;;;21.10;3.95;;;;;;;;;;5117326;28;20503;-67
2021/11/01 02:58:40;;;;;;;27.38;4.28;;;;;;;;;;5122053;28;20066;-67
2021/11/01 03:01:08;;;;;;;28.58;4.05;;;;;;;;;;5097566;28;20052;-67
2021/11/01 03:03:35;;;;;;;35.13;5.18;;;;;;;;;;5114414;28;20039;-66
2021/11/01 03:06:01;;;;;;;22.58;4.43;;;;;;;;;;5115705;28;20145;-67
2021/11/01 03:08:29;;;;;;;16.13;2.78;;;;;;;;;;5122993;28;20090;-67
2021/11/01 03:10:56;;;;;;;22.85;3.50;;;;;;;;;;5114808;28;20399;-67
2021/11/01 03:13:24;;;;;;;29.05;3.25;;;;;;;;;;5122858;28;20559;-67
2021/11/01 03:15:49;;;;;;;;;;;;;;;;;;5117053;28;20035;-67
2021/11/01 03:18:16;;;;;;;26.80;3.53;;;;;;;;;;5099092;28;19928;-67
2021/11/01 03:20:44;;;;;;;25.50;3.90;;;;;;;;;;5116227;28;20089;-67
2021/11/01 03:23:15;;;;;;;23.02;2.97;;;;;;;;;;5100848;28;20052;-67
2021/11/01 03:25:45;;;;;;;24.23;2.90;;;;;;;;;;5120641;28;20086;-67
2021/11/01 03:28:12;;;;;;;26.70;3.90;;;;;;;;;;5119229;28;20111;-67
2021/11/01 03:30:39;;;;;;;22.65;3.33;;;;;;;;;;5094783;28;20044;-67
2021/11/01 03:33:05;;;;;;;7.47;2.17;;;;;;;;;;5100163;28;20495;-67
2021/11/01 03:35:33;;;;;;;22.55;3.08;;;;;;;;;;5104473;28;20047;-67
2021/11/01 03:38:01;;;;;;;17.60;2.47;;;;;;;;;;5118390;28;20067;-67
2021/11/01 03:40:31;;;;;;;31.13;2.80;;;;;;;;;;5087717;28;20051;-67
2021/11/01 03:42:58;;;;;;;21.48;5.20;;;;;;;;;;5104814;28;20521;-67
2021/11/01 03:45:25;;;;;;;22.25;3.88;;;;;;;;;;5096675;28;20044;-67
2021/11/01 03:47:54;;;;;;;21.27;3.03;;;;;;;;;;5103878;28;20047;-67
2021/11/01 03:52:53;;;;;;;19.95;2.83;;;;;;;;;;5124614;28;20040;-67
2021/11/01 03:55:20;;;;;;;26.77;3.97;;;;;;;;;;5092960;28;20064;-67
2021/11/01 03:57:47;;;;;;;16.67;2.92;;;;;;;;;;5106941;28;20082;-67
2021/11/01 04:00:14;;;;;;;15.43;3.22;;;;;;;;;;5095174;28;20032;-67
2021/11/01 04:02:40;;;;;;;17.30;3.03;;;;;;;;;;5110315;28;20040;-66
2021/11/01 04:05:06;;;;;;;18.50;3.03;;;;;;;;;;5110283;28;20043;-66
2021/11/01 04:07:33;;;;;;;19.70;3.13;;;;;;;;;;5102156;28;20048;-67
2021/11/01 04:10:00;;;;;;;16.08;3.20;;;;;;;;;;5112375;28;20078;-67
2021/11/01 04:12:26;;;;;;;;;;;;;;;;;;5102358;28;20071;-67
2021/11/01 04:15:02;;;;;;;18.50;2.80;;;;;;;;;;5110849;28;19926;-67
2021/11/01 04:17:41;;;;;;;15.38;2.97;;;;;;;;;;5110725;28;20055;-67
2021/11/01 04:22:49;;;;;;;10.60;3.03;;;;;;;;;;5118583;28;20039;-66
2021/11/01 04:25:15;;;;;;;13.82;2.60;;;;;;;;;;5111507;28;20049;-67
2021/11/01 04:27:41;;;;;;;18.33;3.42;;;;;;;;;;5100621;28;20119;-67
2021/11/01 04:30:08;;;;;;;12.40;2.63;;;;;;;;;;5109536;28;20047;-67
2021/11/01 04:32:39;;;;;;;15.32;3.90;;;;;;;;;;5088555;28;20051;-67
2021/11/01 04:35:14;;;;;;;14.32;3.08;;;;;;;;;;5109146;28;20507;-67
2021/11/01 04:37:42;;;;;;;16.42;2.30;;;;;;;;;;5086638;28;20068;-67
2021/11/01 04:43:04;;;;;;;19.70;2.80;;;;;;;;;;5100215;28;20039;-67
2021/11/01 04:53:48;;;;;;;16.50;3.25;;;;;;;;;;5097063;28;20052;-67
2021/11/01 04:56:17;;;;;;;19.92;3.10;;;;;;;;;;5104489;28;20072;-67
2021/11/01 04:58:46;;;;;;;10.85;2.60;;;;;;;;;;5098621;28;20076;-67
2021/11/01 05:01:12;;;;;;;15.27;2.95;;;;;;;;;;5091265;28;20044;-67
2021/11/01 05:03:41;;;;;;;19.42;3.97;;;;;;;;;;5091784;28;20098;-67
2021/11/01 05:06:08;;;;;;;8.95;3.00;;;;;;;;;;5097453;28;20043;-67
2021/11/01 05:08:58;;;;;;;17.05;3.10;;;;;;;;;;5097361;28;20045;-67
2021/11/01 05:13:55;;;;;;;13.85;2.55;;;;;;;;;;5095705;28;20055;-67
2021/11/01 05:16:35;;;;;;;9.00;2.53;;;;;;;;;;5097131;28;20048;-67
2021/11/01 05:19:06;;;;;;;10.27;2.83;;;;;;;;;;5098530;28;20120;-67
2021/11/01 05:24:54;;;;;;;19.60;2.85;;;;;;;;;;5095838;28;20063;-67
2021/11/01 05:29:35;;;;;;;12.15;2.90;;;;;;;;;;5099634;28;20402;-67
2021/11/01 05:32:09;;;;;;;15.95;2.55;;;;;;;;;;5097052;28;20400;-67
2021/11/01 05:34:36;;;;;;;16.67;2.80;;;;;;;;;;5098655;28;20047;-67
2021/11/01 05:37:02;;;;;;;9.85;2.50;;;;;;;;;;5100256;28;20060;-68
2021/11/01 05:39:28;;;;;;;18.10;3.67;;;;;;;;;;5115078;28;20051;-67
2021/11/01 05:41:54;;;;;;;17.40;2.33;;;;;;;;;;5118552;28;20528;-67
2021/11/01 05:44:21;;;;;;;15.23;3.28;;;;;;;;;;5112371;28;20044;-67
2021/11/01 05:46:51;;;;;;;24.25;2.72;;;;;;;;;;5105422;28;20526;-67
2021/11/01 05:49:19;;;;;;;7.63;2.30;;;;;;;;;;5111295;28;20051;-67
2021/11/01 05:51:45;;;;;;;14.98;2.95;;;;;;;;;;5114830;28;20048;-67
2021/11/01 05:54:15;;;;;;;20.75;3.10;;;;;;;;;;5119669;28;20154;-67
2021/11/01 05:56:51;;;;;;;17.75;3.45;;;;;;;;;;5120420;28;20054;-67
2021/11/01 05:59:42;;;;;;;10.40;3.05;;;;;;;;;;5113088;28;20040;-67
2021/11/01 06:07:21;;;;;;;10.60;2.22;;;;;;;;;;5119288;28;20044;-66
2021/11/01 06:10:02;;;;;;;16.20;3.17;;;;;;;;;;5111240;28;20069;-67
2021/11/01 06:15:14;;;;;;;10.77;4.78;;;;;;;;;;5108417;28;20518;-67
2021/11/01 06:17:42;;;;;;;14.15;2.50;;;;;;;;;;5114915;28;20048;-67
2021/11/01 06:20:09;;;;;;;13.40;3.45;;;;;;;;;;5095984;28;20044;-67
2021/11/01 06:22:35;;;;;;;13.07;2.83;;;;;;;;;;5124249;28;20426;-66
2021/11/01 06:25:06;;;;;;;15.15;2.92;;;;;;;;;;5091951;28;20113;-67
2021/11/01 06:27:32;;;;;;;22.17;2.60;;;;;;;;;;5125922;28;20044;-67
2021/11/01 06:30:13;;;;;;;13.90;2.67;;;;;;;;;;5097477;28;20043;-67
2021/11/01 06:43:44;;;;;;;9.40;2.50;;;;;;;;;;5122421;28;20056;-67
2021/11/01 06:55:14;;;;;;;15.02;2.70;;;;;;;;;;5095044;28;20069;-66
2021/11/01 06:58:04;;;;;;;14.93;2.70;;;;;;;;;;5113167;28;20052;-66
2021/11/01 08:27:56;;;;;;;9.52;3.10;;;;;;;;;;5114275;28;20056;-66
2021/11/01 08:41:33;;;;;;;16.05;4.25;;;;;;;;;;5080265;28;20059;-67
2021/11/01 09:18:47;;;;;;;7.88;2.60;;;;;;;;;;5043730;28;20071;-67
2021/11/01 09:23:48;;;;;;;13.02;3.03;;;;;;;;;;5062038;28;20041;-67
2021/11/01 09:26:25;;;;;;;15.05;2.90;;;;;;;;;;5065013;28;20052;-68
2021/11/01 09:37:27;;;;;;;6.65;2.33;;;;;;;;;;5052284;28;20402;-66
2021/11/01 09:42:46;;;;;;;11.05;2.95;;;;;;;;;;5059628;28;20087;-66
2021/11/01 09:45:13;;;;;;;10.27;2.30;;;;;;;;;;5049373;28;20444;-66
2021/11/01 09:47:42;;;;;;;10.48;2.85;;;;;;;;;;5056988;28;20487;-67
2021/11/01 09:50:09;;;;;;;11.00;3.00;;;;;;;;;;5090552;28;20075;-66
2021/11/01 09:52:35;;;;;;;10.57;2.70;;;;;;;;;;5091932;28;20041;-66
2021/11/01 09:55:16;;;;;;;11.65;3.50;;;;;;;;;;5097456;28;20040;-66
2021/11/01 09:59:11;;;;;;;8.75;2.78;;;;;;;;;;5093667;28;20472;-67
2021/11/01 10:00:29;;;;;;;8.93;3.55;;;;;;;;;;5091741;28;20070;-66
2021/11/01 10:02:55;;;;;;;15.13;2.42;;;;;;;;;;5086672;28;20044;-66
2021/11/01 10:05:25;;;;;;;15.20;2.42;;;;;;;;;;5097268;28;20062;-66
2021/11/01 10:07:52;;;;;;;14.40;3.03;;;;;;;;;;5093615;28;20049;-66
2021/11/01 10:10:18;;;;;;;7.78;2.35;;;;;;;;;;5099915;28;20048;-66
2021/11/01 10:12:47;;;;;;;7.00;2.60;;;;;;;;;;5099899;28;20028;-66
2021/11/01 10:18:09;;;;;;;5.90;2.05;;;;;;;;;;5091793;28;20113;-66
2021/11/01 10:20:39;;;;;;;11.85;2.50;;;;;;;;;;5089582;28;20051;-67
2021/11/01 10:23:35;;;;;;;10.35;2.55;;;;;;;;;;5089276;28;20038;-66
2021/11/01 10:26:08;;;;;;;8.82;2.10;;;;;;;;;;5084243;28;20074;-66
2021/11/01 10:28:35;;;;;;;11.00;2.65;;;;;;;;;;5094326;28;20048;-66
2021/11/01 10:31:08;;;;;;;9.68;2.10;;;;;;;;;;5097943;28;20522;-66
2021/11/01 10:33:34;;;;;;;11.27;2.53;;;;;;;;;;5091073;28;20040;-67
2021/11/01 10:36:00;;;;;;;9.88;1.70;;;;;;;;;;5096893;28;20044;-69
2021/11/01 10:38:36;;;;;;;7.18;2.63;;;;;;;;;;5112022;28;20075;-64
2021/11/01 10:47:26;;;;;;;6.20;2.03;;;;;;;;;;5108808;28;20070;-69
2021/11/01 11:13:49;;;;;;;6.70;1.80;;;;;;;;;;5115071;28;20077;-63
2021/11/01 11:30:47;;;;;;;4.70;1.70;;;;;;;;;;5100398;28;20090;-66
2021/11/01 11:47:40;;;;;;;4.70;1.38;;;;;;;;;;5015583;28;20060;-72
2021/11/01 11:50:17;;;;;;;5.30;1.65;;;;;;;;;;5020879;28;20053;-68
2021/11/01 11:52:44;;;;;;;7.07;1.58;;;;;;;;;;5023773;28;20042;-69
2021/11/01 11:55:15;;;;;;;6.07;1.63;;;;;;;;;;5035476;28;20056;-69
2021/11/01 11:57:42;;;;;;;3.20;1.30;;;;;;;;;;5019041;28;20049;-69
2021/11/01 12:00:10;;;;;;;10.80;1.70;;;;;;;;;;5034356;28;20045;-69
2021/11/01 12:02:41;;;;;;;6.85;1.50;;;;;;;;;;5039391;28;20058;-70
2021/11/01 12:05:14;;;;;;;8.30;1.88;;;;;;;;;;5038491;28;20045;-70
2021/11/01 12:07:52;;;;;;;7.28;1.83;;;;;;;;;;5021601;28;20049;-70
2021/11/01 12:18:35;;;;;;;;;;;;;;;;;;5092757;28;20092;-69
2021/11/01 12:21:01;;;;;;;7.40;1.50;;;;;;;;;;5081243;28;19927;-69
2021/11/01 12:23:35;;;;;;;6.13;1.27;;;;;;;;;;5110351;28;20119;-69
2021/11/01 12:26:08;;;;;;;10.02;2.05;;;;;;;;;;5095292;28;20510;-69
2021/11/01 12:28:34;;;;;;;6.57;1.35;;;;;;;;;;5110040;28;20051;-69
2021/11/01 12:31:00;;;;;;;6.07;1.30;;;;;;;;;;5115361;28;20170;-69
2021/11/01 12:33:28;;;;;;;5.85;1.58;;;;;;;;;;5119797;28;20476;-70
2021/11/01 12:35:59;;;;;;;6.82;2.10;;;;;;;;;;5121343;28;20044;-69
2021/11/01 12:38:34;;;;;;;6.15;1.80;;;;;;;;;;5096716;28;20047;-69
2021/11/01 12:41:11;;;;;;;4.55;1.38;;;;;;;;;;5120747;28;20036;-69
2021/11/01 12:57:04;;;;;;;8.52;1.98;;;;;;;;;;5109447;28;20090;-74
2021/11/01 12:59:40;;;;;;;7.35;1.85;;;;;;;;;;5088892;28;20047;-75
2021/11/01 13:02:08;;;;;;;4.22;1.20;;;;;;;;;;5111534;28;20047;-74
2021/11/01 13:04:37;;;;;;;3.83;1.10;;;;;;;;;;5108740;28;20069;-77
2021/11/01 13:09:52;;;;;;;3.30;1.02;;;;;;;;;;5120152;28;20043;-75
2021/11/01 13:12:37;;;;;;;4.05;1.15;;;;;;;;;;5105413;28;20503;-72
2021/11/01 13:18:05;;;;;;;4.57;1.52;;;;;;;;;;5125250;28;20134;-74
2021/11/01 13:20:32;;;;;;;2.55;0.90;;;;;;;;;;5097353;28;20054;-74
2021/11/01 13:23:01;;;;;;;6.00;1.08;;;;;;;;;;5114981;28;20063;-76
2021/11/01 13:25:55;;;;;;;7.97;1.20;;;;;;;;;;5121328;28;20058;-76
2021/11/01 13:38:45;;;;;;;;;;;;;;;;;;5117480;28;20530;-70
2021/11/01 13:41:15;;;;;;;7.45;1.30;;;;;;;;;;5118176;28;19919;-76
2021/11/01 13:43:44;;;;;;;3.95;0.80;;;;;;;;;;5111552;28;20051;-76
2021/11/01 13:46:11;;;;;;;3.33;1.10;;;;;;;;;;5097901;28;20051;-72
2021/11/01 13:48:39;;;;;;;3.03;0.85;;;;;;;;;;5117458;28;20107;-76
2021/11/01 13:51:12;;;;;;;4.30;1.17;;;;;;;;;;5118928;28;20045;-76
2021/11/01 13:53:59;;;;;;;2.05;0.90;;;;;;;;;;5120133;28;20186;-76
2021/11/01 13:56:29;;;;;;;4.10;1.55;;;;;;;;;;5109518;28;20068;-75
2021/11/01 13:59:03;;;;;;;2.55;1.10;;;;;;;;;;5117766;28;20067;-74
2021/11/01 14:18:16;;;;;;;4.45;1.20;;;;;;;;;;5072505;28;20060;-72
2021/11/01 15:21:59;;;;;;;5.85;1.35;;;;;;;;;;5121386;28;20103;-72
2021/11/01 15:24:44;;;;;;;9.00;1.60;;;;;;;;;;5115598;28;20031;-73
2021/11/01 15:27:29;;;;;;;3.90;1.20;;;;;;;;;;5114903;28;20548;-78
2021/11/01 16:18:41;;;;;;;7.32;1.92;;;;;;;;;;5096039;28;20052;-64
2021/11/01 16:21:07;;;;;;;6.20;2.08;;;;;;;;;;5113537;28;20037;-67
2021/11/01 16:23:35;;;;;;;4.00;1.83;;;;;;;;;;5093018;28;20069;-67
2021/11/01 16:28:41;;;;;;;8.88;2.38;;;;;;;;;;5096335;28;20059;-68
2021/11/01 16:31:23;;;;;;;7.63;1.90;;;;;;;;;;5094477;28;20237;-68
2021/11/01 16:34:05;;;;;;;6.28;1.55;;;;;;;;;;5114308;28;20046;-67
2021/11/01 16:39:05;;;;;;;8.70;2.58;;;;;;;;;;5115037;28;20055;-67
2021/11/01 16:41:34;;;;;;;8.20;1.60;;;;;;;;;;5115394;28;20495;-67
2021/11/01 16:44:06;;;;;;;12.10;3.08;;;;;;;;;;5113531;28;20058;-68
2021/11/01 16:46:33;;;;;;;9.80;2.08;;;;;;;;;;5118321;28;20059;-68
2021/11/01 16:48:59;;;;;;;11.15;2.63;;;;;;;;;;5117996;28;20517;-68
2021/11/01 16:51:25;;;;;;;8.60;2.03;;;;;;;;;;5098915;28;20040;-68
2021/11/01 16:53:51;;;;;;;5.40;1.65;;;;;;;;;;5116779;28;20059;-68
2021/11/01 16:56:40;;;;;;;6.43;1.55;;;;;;;;;;5118935;28;20104;-68
2021/11/01 16:59:55;;;;;;;13.07;2.92;;;;;;;;;;5118789;28;20048;-67
2021/11/01 17:02:01;;;;;;;5.18;1.85;;;;;;;;;;5103065;28;20063;-67
2021/11/01 17:04:28;;;;;;;5.97;2.33;;;;;;;;;;5111188;28;20785;-67
2021/11/01 17:07:10;;;;;;;6.23;2.40;;;;;;;;;;5124704;28;20038;-67
2021/11/01 17:09:56;;;;;;;9.05;2.53;;;;;;;;;;5111735;28;20109;-67
2021/11/01 17:26:10;;;;;;;12.13;2.70;;;;;;;;;;5097516;28;20062;-67
2021/11/01 18:40:52;;;;;;;9.85;2.17;;;;;;;;;;5093075;28;20432;-67
2021/11/01 18:43:27;;;;;;;9.73;2.63;;;;;;;;;;5117190;28;20047;-65
2021/11/01 18:51:30;;;;;;;5.63;1.90;;;;;;;;;;5113202;28;20035;-68
2021/11/01 18:54:17;;;;;;;10.90;2.42;;;;;;;;;;5116747;28;20050;-66
2021/11/01 18:56:44;;;;;;;7.95;2.45;;;;;;;;;;5116385;28;20058;-67
2021/11/01 18:59:10;;;;;;;11.40;1.97;;;;;;;;;;5118067;28;20051;-66
2021/11/01 19:01:38;;;;;;;7.50;2.22;;;;;;;;;;5122855;28;20032;-66
2021/11/01 19:04:11;;;;;;;7.88;2.42;;;;;;;;;;5118613;28;20124;-67
2021/11/01 19:09:25;;;;;;;9.95;3.67;;;;;;;;;;5120247;28;20455;-65
2021/11/01 21:26:45;;;;;;;4.72;1.90;;;;;;;;;;5099481;28;20067;-73
2021/11/01 21:29:11;;;;;;;6.20;1.90;;;;;;;;;;5113076;28;20051;-73
2021/11/01 21:31:37;;;;;;;6.60;2.13;;;;;;;;;;5096845;28;20138;-73
2021/11/01 21:34:06;;;;;;;4.38;2.05;;;;;;;;;;5098481;28;20043;-73
2021/11/01 21:36:32;;;;;;;5.80;1.80;;;;;;;;;;5114574;28;20050;-73
2021/11/01 21:38:59;;;;;;;6.55;1.67;;;;;;;;;;5096674;28;20044;-73
2021/11/01 21:41:26;;;;;;;3.60;1.90;;;;;;;;;;5096554;28;20066;-73
2021/11/01 21:43:53;;;;;;;4.80;1.83;;;;;;;;;;5096081;28;20128;-72
2021/11/01 21:46:19;;;;;;;7.32;2.40;;;;;;;;;;5114684;28;20044;-73
2021/11/01 21:48:45;;;;;;;4.63;2.05;;;;;;;;;;5115265;28;20047;-73
2021/11/01 21:51:14;;;;;;;4.47;2.10;;;;;;;;;;5114704;28;20063;-73
2021/11/01 21:53:42;;;;;;;6.40;2.05;;;;;;;;;;5116026;28;20112;-74
2021/11/01 21:56:11;;;;;;;3.33;2.25;;;;;;;;;;5112858;28;20054;-73
2021/11/01 22:17:31;;;;;;;6.72;2.35;;;;;;;;;;5097878;28;20056;-72
2021/11/01 22:20:11;;;;;;;3.28;2.00;;;;;;;;;;5116791;28;20118;-72
2021/11/01 22:25:40;;;;;;;5.03;2.20;;;;;;;;;;5065374;28;20064;-72
2021/11/01 22:33:41;;;;;;;4.03;2.30;;;;;;;;;;5116716;28;20043;-74
2021/11/01 22:39:31;;;;;;;3.00;2.40;;;;;;;;;;5113090;28;20094;-75
2021/11/01 22:57:25;;;;;;;4.60;2.63;;;;;;;;;;5118228;28;20050;-75
2021/11/01 22:59:52;;;;;;;6.60;3.03;;;;;;;;;;5118285;28;20118;-75
2021/11/01 23:02:18;;;;;;;6.93;2.93;;;;;;;;;;5095959;28;20063;-75
2021/11/01 23:05:29;;;;;;;6.25;3.28;;;;;;;;;;5112583;28;20381;-75
2021/11/01 23:32:20;;;;;;;6.75;3.55;;;;;;;;;;5115866;28;20142;-75
2021/11/01 23:34:46;;;;;;;5.25;3.22;;;;;;;;;;5118918;28;20054;-75
2021/11/01 23:37:12;;;;;;;4.25;3.13;;;;;;;;;;5110261;28;20052;-75
2021/11/01 23:39:38;;;;;;;7.07;3.88;;;;;;;;;;5110015;28;20103;-75
2021/11/01 23:42:04;;;;;;;10.82;3.72;;;;;;;;;;5118192;28;20040;-75
2021/11/01 23:44:30;;;;;;;5.40;3.75;;;;;;;;;;5115955;28;20047;-75
2021/11/01 23:46:56;;;;;;;9.73;4.55;;;;;;;;;;5100415;28;20558;-75
2021/11/01 23:49:22;;;;;;;8.43;4.07;;;;;;;;;;5121838;28;20407;-74
2021/11/01 23:51:59;;;;;;;5.20;3.58;;;;;;;;;;5120791;28;20403;-74
2021/11/01 23:54:37;;;;;;;10.48;4.55;;;;;;;;;;5121321;28;20124;-74
2021/11/01 23:57:03;;;;;;;5.32;4.05;;;;;;;;;;5112344;28;20048;-74
2021/11/01 23:59:29;;;;;;;8.57;4.65;;;;;;;;;;5117976;28;20051;-74
